sensor_id;sensor_type;location;lat;lon;timestamp;P1;durP1;ratioP1;P2;durP2;ratioP2
49978;SDS011;35869;50.990;6.962;2023-01-05T00:04:43;12.32;;;3.65;;
49978;SDS011;35869;50.990;6.962;2023-01-05T00:09:44;11.57;;;4.15;;
49978;SDS011;35869;50.990;6.962;2023-01-05T00:14:44;12.18;;;3.47;;
49978;SDS011;35869;50.990;6.962;2023-01-05T00:19:44;14.02;;;3.83;;
49978;SDS011;35869;50.990;6.962;2023-01-05T00:24:45;10.33;;;3.77;;
49978;SDS011;35869;50.990;6.962;2023-01-05T00:29:45;10.55;;;3.60;;
49978;SDS011;35869;50.990;6.962;2023-01-05T00:34:45;11.00;;;3.53;;
49978;SDS011;35869;50.990;6.962;2023-01-05T00:39:45;15.32;;;4.15;;
49978;SDS011;35869;50.990;6.962;2023-01-05T00:44:46;12.55;;;3.80;;
49978;SDS011;35869;50.990;6.962;2023-01-05T00:49:46;15.63;;;3.77;;
49978;SDS011;35869;50.990;6.962;2023-01-05T00:54:46;16.30;;;3.72;;
49978;SDS011;35869;50.990;6.962;2023-01-05T00:59:46;11.60;;;3.78;;
49978;SDS011;35869;50.990;6.962;2023-01-05T01:04:47;19.92;;;5.00;;
49978;SDS011;35869;50.990;6.962;2023-01-05T01:09:47;13.52;;;3.50;;
49978;SDS011;35869;50.990;6.962;2023-01-05T01:14:47;13.85;;;3.90;;
49978;SDS011;35869;50.990;6.962;2023-01-05T01:19:48;11.93;;;3.58;;
49978;SDS011;35869;50.990;6.962;2023-01-05T01:24:48;15.85;;;4.25;;
49978;SDS011;35869;50.990;6.962;2023-01-05T01:29:48;14.55;;;4.20;;
49978;SDS011;35869;50.990;6.962;2023-01-05T01:34:49;9.38;;;3.25;;
49978;SDS011;35869;50.990;6.962;2023-01-05T01:39:49;12.35;;;3.72;;
49978;SDS011;35869;50.990;6.962;2023-01-05T01:44:54;8.30;;;3.92;;
49978;SDS011;35869;50.990;6.962;2023-01-05T01:50:00;14.65;;;4.88;;
49978;SDS011;35869;50.990;6.962;2023-01-05T01:55:03;15.30;;;3.67;;
49978;SDS011;35869;50.990;6.962;2023-01-05T02:00:06;11.90;;;4.47;;
49978;SDS011;35869;50.990;6.962;2023-01-05T02:05:09;17.88;;;3.80;;
49978;SDS011;35869;50.990;6.962;2023-01-05T02:10:11;11.77;;;3.70;;
49978;SDS011;35869;50.990;6.962;2023-01-05T02:21:06;11.05;;;3.67;;
49978;SDS011;35869;50.990;6.962;2023-01-05T02:31:52;11.55;;;3.65;;
49978;SDS011;35869;50.990;6.962;2023-01-05T02:37:06;16.23;;;4.97;;
49978;SDS011;35869;50.990;6.962;2023-01-05T02:42:14;16.10;;;4.70;;
49978;SDS011;35869;50.990;6.962;2023-01-05T02:52:25;22.70;;;5.20;;
49978;SDS011;35869;50.990;6.962;2023-01-05T02:57:27;16.80;;;4.35;;
49978;SDS011;35869;50.990;6.962;2023-01-05T03:02:32;14.88;;;5.20;;
49978;SDS011;35869;50.990;6.962;2023-01-05T03:07:33;11.40;;;3.77;;
49978;SDS011;35869;50.990;6.962;2023-01-05T03:12:38;16.75;;;4.68;;
49978;SDS011;35869;50.990;6.962;2023-01-05T03:17:39;16.58;;;4.82;;
49978;SDS011;35869;50.990;6.962;2023-01-05T03:22:43;14.20;;;4.70;;
49978;SDS011;35869;50.990;6.962;2023-01-05T03:27:45;14.88;;;4.80;;
49978;SDS011;35869;50.990;6.962;2023-01-05T03:32:51;14.27;;;4.35;;
49978;SDS011;35869;50.990;6.962;2023-01-05T03:38:08;10.20;;;3.63;;
49978;SDS011;35869;50.990;6.962;2023-01-05T03:43:17;13.63;;;4.35;;
49978;SDS011;35869;50.990;6.962;2023-01-05T03:48:18;19.58;;;5.13;;
49978;SDS011;35869;50.990;6.962;2023-01-05T03:53:19;16.38;;;4.93;;
49978;SDS011;35869;50.990;6.962;2023-01-05T03:58:19;9.60;;;4.30;;
49978;SDS011;35869;50.990;6.962;2023-01-05T04:03:19;15.02;;;4.32;;
49978;SDS011;35869;50.990;6.962;2023-01-05T04:08:20;12.38;;;4.25;;
49978;SDS011;35869;50.990;6.962;2023-01-05T04:13:20;11.80;;;4.80;;
49978;SDS011;35869;50.990;6.962;2023-01-05T04:18:20;10.38;;;5.25;;
49978;SDS011;35869;50.990;6.962;2023-01-05T04:23:20;18.20;;;4.53;;
49978;SDS011;35869;50.990;6.962;2023-01-05T04:28:20;12.80;;;4.80;;
49978;SDS011;35869;50.990;6.962;2023-01-05T04:33:21;15.27;;;4.90;;
49978;SDS011;35869;50.990;6.962;2023-01-05T04:38:22;15.75;;;4.95;;
49978;SDS011;35869;50.990;6.962;2023-01-05T04:43:22;14.32;;;5.88;;
49978;SDS011;35869;50.990;6.962;2023-01-05T04:48:23;13.60;;;4.07;;
49978;SDS011;35869;50.990;6.962;2023-01-05T04:53:23;18.15;;;4.22;;
49978;SDS011;35869;50.990;6.962;2023-01-05T04:58:23;12.30;;;4.90;;
49978;SDS011;35869;50.990;6.962;2023-01-05T05:03:25;18.35;;;5.25;;
49978;SDS011;35869;50.990;6.962;2023-01-05T05:08:25;19.60;;;5.38;;
49978;SDS011;35869;50.990;6.962;2023-01-05T05:13:25;17.45;;;6.20;;
49978;SDS011;35869;50.990;6.962;2023-01-05T05:18:25;10.40;;;4.13;;
49978;SDS011;35869;50.990;6.962;2023-01-05T05:23:26;14.60;;;5.97;;
49978;SDS011;35869;50.990;6.962;2023-01-05T05:28:26;17.50;;;5.20;;
49978;SDS011;35869;50.990;6.962;2023-01-05T05:33:26;22.13;;;5.25;;
49978;SDS011;35869;50.990;6.962;2023-01-05T05:38:27;27.70;;;7.45;;
49978;SDS011;35869;50.990;6.962;2023-01-05T05:43:27;16.52;;;6.03;;
49978;SDS011;35869;50.990;6.962;2023-01-05T05:48:28;25.45;;;6.90;;
49978;SDS011;35869;50.990;6.962;2023-01-05T05:53:28;20.13;;;6.53;;
49978;SDS011;35869;50.990;6.962;2023-01-05T05:58:28;17.85;;;4.68;;
49978;SDS011;35869;50.990;6.962;2023-01-05T06:03:28;13.98;;;5.18;;
49978;SDS011;35869;50.990;6.962;2023-01-05T06:08:29;18.77;;;5.68;;
49978;SDS011;35869;50.990;6.962;2023-01-05T06:13:29;22.33;;;6.10;;
49978;SDS011;35869;50.990;6.962;2023-01-05T06:18:29;12.00;;;5.25;;
49978;SDS011;35869;50.990;6.962;2023-01-05T06:23:29;20.48;;;5.68;;
49978;SDS011;35869;50.990;6.962;2023-01-05T06:28:29;24.92;;;6.38;;
49978;SDS011;35869;50.990;6.962;2023-01-05T06:33:30;21.40;;;6.07;;
49978;SDS011;35869;50.990;6.962;2023-01-05T06:38:30;15.43;;;5.50;;
49978;SDS011;35869;50.990;6.962;2023-01-05T06:43:31;17.73;;;5.53;;
49978;SDS011;35869;50.990;6.962;2023-01-05T06:48:31;19.75;;;6.10;;
49978;SDS011;35869;50.990;6.962;2023-01-05T06:53:31;22.88;;;6.97;;
49978;SDS011;35869;50.990;6.962;2023-01-05T06:58:31;18.42;;;5.57;;
49978;SDS011;35869;50.990;6.962;2023-01-05T07:03:32;24.73;;;6.20;;
49978;SDS011;35869;50.990;6.962;2023-01-05T07:08:32;20.58;;;5.65;;
49978;SDS011;35869;50.990;6.962;2023-01-05T07:13:32;24.42;;;7.03;;
49978;SDS011;35869;50.990;6.962;2023-01-05T07:18:32;19.35;;;6.15;;
49978;SDS011;35869;50.990;6.962;2023-01-05T07:23:36;22.65;;;5.82;;
49978;SDS011;35869;50.990;6.962;2023-01-05T07:28:37;18.38;;;5.47;;
49978;SDS011;35869;50.990;6.962;2023-01-05T07:33:37;16.40;;;4.93;;
49978;SDS011;35869;50.990;6.962;2023-01-05T07:38:37;21.08;;;6.63;;
49978;SDS011;35869;50.990;6.962;2023-01-05T07:43:37;18.35;;;6.40;;
49978;SDS011;35869;50.990;6.962;2023-01-05T07:48:38;17.23;;;5.53;;
49978;SDS011;35869;50.990;6.962;2023-01-05T07:53:38;20.75;;;5.45;;
49978;SDS011;35869;50.990;6.962;2023-01-05T07:58:38;21.48;;;5.95;;
49978;SDS011;35869;50.990;6.962;2023-01-05T08:03:39;18.83;;;6.40;;
49978;SDS011;35869;50.990;6.962;2023-01-05T08:08:39;16.03;;;5.30;;
49978;SDS011;35869;50.990;6.962;2023-01-05T08:13:40;24.17;;;6.25;;
49978;SDS011;35869;50.990;6.962;2023-01-05T08:18:41;19.60;;;6.00;;
49978;SDS011;35869;50.990;6.962;2023-01-05T08:23:41;19.92;;;6.20;;
49978;SDS011;35869;50.990;6.962;2023-01-05T08:28:41;18.08;;;5.25;;
49978;SDS011;35869;50.990;6.962;2023-01-05T08:33:42;29.77;;;6.97;;
49978;SDS011;35869;50.990;6.962;2023-01-05T08:38:43;13.55;;;6.07;;
49978;SDS011;35869;50.990;6.962;2023-01-05T08:43:43;26.67;;;7.18;;
49978;SDS011;35869;50.990;6.962;2023-01-05T08:48:55;18.77;;;5.93;;
49978;SDS011;35869;50.990;6.962;2023-01-05T08:53:56;16.40;;;5.45;;
49978;SDS011;35869;50.990;6.962;2023-01-05T08:58:57;22.23;;;6.73;;
49978;SDS011;35869;50.990;6.962;2023-01-05T09:03:57;20.40;;;5.90;;
49978;SDS011;35869;50.990;6.962;2023-01-05T09:08:57;24.65;;;6.45;;
49978;SDS011;35869;50.990;6.962;2023-01-05T09:13:58;22.45;;;6.40;;
49978;SDS011;35869;50.990;6.962;2023-01-05T09:19:00;22.65;;;7.25;;
49978;SDS011;35869;50.990;6.962;2023-01-05T09:24:00;23.55;;;7.18;;
49978;SDS011;35869;50.990;6.962;2023-01-05T09:29:01;17.25;;;5.93;;
49978;SDS011;35869;50.990;6.962;2023-01-05T09:34:01;22.52;;;6.43;;
49978;SDS011;35869;50.990;6.962;2023-01-05T09:39:01;17.52;;;5.78;;
49978;SDS011;35869;50.990;6.962;2023-01-05T09:44:05;22.23;;;6.57;;
49978;SDS011;35869;50.990;6.962;2023-01-05T09:49:14;19.80;;;7.32;;
49978;SDS011;35869;50.990;6.962;2023-01-05T09:54:19;18.00;;;7.20;;
49978;SDS011;35869;50.990;6.962;2023-01-05T09:59:32;23.92;;;7.45;;
49978;SDS011;35869;50.990;6.962;2023-01-05T10:04:35;22.02;;;7.57;;
49978;SDS011;35869;50.990;6.962;2023-01-05T10:09:36;21.90;;;6.22;;
49978;SDS011;35869;50.990;6.962;2023-01-05T10:25:45;19.70;;;6.30;;
49978;SDS011;35869;50.990;6.962;2023-01-05T10:30:57;17.40;;;5.97;;
49978;SDS011;35869;50.990;6.962;2023-01-05T10:36:02;21.38;;;6.38;;
49978;SDS011;35869;50.990;6.962;2023-01-05T10:41:28;19.42;;;6.95;;
49978;SDS011;35869;50.990;6.962;2023-01-05T10:46:51;18.83;;;6.03;;
49978;SDS011;35869;50.990;6.962;2023-01-05T10:51:51;19.15;;;7.25;;
49978;SDS011;35869;50.990;6.962;2023-01-05T10:56:52;14.65;;;5.97;;
49978;SDS011;35869;50.990;6.962;2023-01-05T11:01:52;21.40;;;6.30;;
49978;SDS011;35869;50.990;6.962;2023-01-05T11:06:53;14.00;;;6.68;;
49978;SDS011;35869;50.990;6.962;2023-01-05T11:12:02;22.98;;;6.88;;
49978;SDS011;35869;50.990;6.962;2023-01-05T11:17:04;16.27;;;6.57;;
49978;SDS011;35869;50.990;6.962;2023-01-05T11:22:49;17.23;;;5.90;;
49978;SDS011;35869;50.990;6.962;2023-01-05T11:27:34;16.75;;;6.82;;
49978;SDS011;35869;50.990;6.962;2023-01-05T11:32:35;16.15;;;6.13;;
49978;SDS011;35869;50.990;6.962;2023-01-05T11:37:35;21.17;;;6.60;;
49978;SDS011;35869;50.990;6.962;2023-01-05T11:42:36;15.77;;;5.73;;
49978;SDS011;35869;50.990;6.962;2023-01-05T11:47:37;16.70;;;7.17;;
49978;SDS011;35869;50.990;6.962;2023-01-05T11:52:43;21.30;;;6.85;;
49978;SDS011;35869;50.990;6.962;2023-01-05T11:57:46;16.88;;;6.30;;
49978;SDS011;35869;50.990;6.962;2023-01-05T12:02:57;15.13;;;6.95;;
49978;SDS011;35869;50.990;6.962;2023-01-05T12:08:04;15.30;;;5.68;;
49978;SDS011;35869;50.990;6.962;2023-01-05T12:35:50;19.77;;;5.47;;
49978;SDS011;35869;50.990;6.962;2023-01-05T12:56:26;17.63;;;5.63;;
49978;SDS011;35869;50.990;6.962;2023-01-05T13:01:30;15.70;;;5.85;;
49978;SDS011;35869;50.990;6.962;2023-01-05T13:06:36;16.15;;;5.20;;
49978;SDS011;35869;50.990;6.962;2023-01-05T13:16:58;16.38;;;5.75;;
49978;SDS011;35869;50.990;6.962;2023-01-05T13:22:07;19.35;;;5.20;;
49978;SDS011;35869;50.990;6.962;2023-01-05T13:27:23;21.35;;;5.97;;
49978;SDS011;35869;50.990;6.962;2023-01-05T13:48:22;24.27;;;5.68;;
49978;SDS011;35869;50.990;6.962;2023-01-05T13:53:36;17.70;;;4.68;;
49978;SDS011;35869;50.990;6.962;2023-01-05T14:03:51;18.98;;;5.70;;
49978;SDS011;35869;50.990;6.962;2023-01-05T14:08:58;16.00;;;5.68;;
49978;SDS011;35869;50.990;6.962;2023-01-05T14:14:24;18.27;;;5.18;;
49978;SDS011;35869;50.990;6.962;2023-01-05T14:34:47;21.83;;;8.65;;
49978;SDS011;35869;50.990;6.962;2023-01-05T14:39:49;19.98;;;7.45;;
49978;SDS011;35869;50.990;6.962;2023-01-05T14:44:57;23.35;;;6.50;;
49978;SDS011;35869;50.990;6.962;2023-01-05T14:50:00;17.95;;;6.13;;
49978;SDS011;35869;50.990;6.962;2023-01-05T15:05:11;26.15;;;7.93;;
49978;SDS011;35869;50.990;6.962;2023-01-05T15:15:35;22.30;;;6.82;;
49978;SDS011;35869;50.990;6.962;2023-01-05T15:36:29;21.15;;;7.13;;
49978;SDS011;35869;50.990;6.962;2023-01-05T15:41:52;41.65;;;13.98;;
49978;SDS011;35869;50.990;6.962;2023-01-05T15:46:55;19.38;;;7.15;;
49978;SDS011;35869;50.990;6.962;2023-01-05T15:51:56;26.92;;;8.88;;
49978;SDS011;35869;50.990;6.962;2023-01-05T15:56:57;41.28;;;12.70;;
49978;SDS011;35869;50.990;6.962;2023-01-05T16:01:59;29.42;;;9.50;;
49978;SDS011;35869;50.990;6.962;2023-01-05T16:07:00;23.83;;;8.45;;
49978;SDS011;35869;50.990;6.962;2023-01-05T16:12:21;28.92;;;7.20;;
49978;SDS011;35869;50.990;6.962;2023-01-05T16:17:24;20.63;;;7.47;;
49978;SDS011;35869;50.990;6.962;2023-01-05T16:22:30;24.70;;;6.95;;
49978;SDS011;35869;50.990;6.962;2023-01-05T16:27:37;20.58;;;6.53;;
49978;SDS011;35869;50.990;6.962;2023-01-05T16:32:39;20.17;;;6.88;;
49978;SDS011;35869;50.990;6.962;2023-01-05T16:37:39;28.87;;;6.93;;
49978;SDS011;35869;50.990;6.962;2023-01-05T16:42:43;24.52;;;7.43;;
49978;SDS011;35869;50.990;6.962;2023-01-05T16:47:47;27.33;;;7.97;;
49978;SDS011;35869;50.990;6.962;2023-01-05T16:52:54;29.03;;;7.77;;
49978;SDS011;35869;50.990;6.962;2023-01-05T16:57:57;25.05;;;8.70;;
49978;SDS011;35869;50.990;6.962;2023-01-05T17:02:59;24.92;;;8.55;;
49978;SDS011;35869;50.990;6.962;2023-01-05T17:13:40;24.77;;;8.85;;
49978;SDS011;35869;50.990;6.962;2023-01-05T17:18:43;26.63;;;8.82;;
49978;SDS011;35869;50.990;6.962;2023-01-05T17:23:45;24.42;;;8.50;;
49978;SDS011;35869;50.990;6.962;2023-01-05T17:28:48;29.05;;;8.15;;
49978;SDS011;35869;50.990;6.962;2023-01-05T17:33:48;20.20;;;8.60;;
49978;SDS011;35869;50.990;6.962;2023-01-05T17:38:48;24.20;;;8.70;;
49978;SDS011;35869;50.990;6.962;2023-01-05T17:43:49;23.35;;;8.77;;
49978;SDS011;35869;50.990;6.962;2023-01-05T17:48:49;23.20;;;9.40;;
49978;SDS011;35869;50.990;6.962;2023-01-05T17:53:49;26.33;;;8.25;;
49978;SDS011;35869;50.990;6.962;2023-01-05T17:58:49;21.17;;;8.57;;
49978;SDS011;35869;50.990;6.962;2023-01-05T18:03:50;20.65;;;8.38;;
49978;SDS011;35869;50.990;6.962;2023-01-05T18:08:50;22.63;;;10.55;;
49978;SDS011;35869;50.990;6.962;2023-01-05T18:13:51;27.60;;;10.68;;
49978;SDS011;35869;50.990;6.962;2023-01-05T18:18:51;21.17;;;10.27;;
49978;SDS011;35869;50.990;6.962;2023-01-05T18:23:51;25.73;;;9.77;;
49978;SDS011;35869;50.990;6.962;2023-01-05T18:28:51;20.55;;;10.65;;
49978;SDS011;35869;50.990;6.962;2023-01-05T18:33:52;29.60;;;11.60;;
49978;SDS011;35869;50.990;6.962;2023-01-05T18:38:52;22.10;;;11.20;;
49978;SDS011;35869;50.990;6.962;2023-01-05T18:43:52;25.95;;;10.45;;
49978;SDS011;35869;50.990;6.962;2023-01-05T18:48:52;29.60;;;9.93;;
49978;SDS011;35869;50.990;6.962;2023-01-05T18:53:53;23.35;;;9.30;;
49978;SDS011;35869;50.990;6.962;2023-01-05T18:58:53;22.92;;;10.15;;
49978;SDS011;35869;50.990;6.962;2023-01-05T19:03:53;34.80;;;12.63;;
49978;SDS011;35869;50.990;6.962;2023-01-05T19:08:53;27.80;;;10.43;;
49978;SDS011;35869;50.990;6.962;2023-01-05T19:13:54;34.47;;;12.70;;
49978;SDS011;35869;50.990;6.962;2023-01-05T19:18:57;22.27;;;10.60;;
49978;SDS011;35869;50.990;6.962;2023-01-05T19:24:00;20.77;;;9.57;;
49978;SDS011;35869;50.990;6.962;2023-01-05T19:34:01;21.13;;;9.90;;
49978;SDS011;35869;50.990;6.962;2023-01-05T19:39:02;29.88;;;9.63;;
49978;SDS011;35869;50.990;6.962;2023-01-05T19:44:04;25.00;;;10.30;;
49978;SDS011;35869;50.990;6.962;2023-01-05T19:49:05;26.67;;;10.33;;
49978;SDS011;35869;50.990;6.962;2023-01-05T19:54:05;24.38;;;10.25;;
49978;SDS011;35869;50.990;6.962;2023-01-05T19:59:06;26.42;;;9.80;;
49978;SDS011;35869;50.990;6.962;2023-01-05T20:04:12;29.85;;;10.13;;
49978;SDS011;35869;50.990;6.962;2023-01-05T20:09:14;39.35;;;11.63;;
49978;SDS011;35869;50.990;6.962;2023-01-05T20:14:17;23.75;;;9.60;;
49978;SDS011;35869;50.990;6.962;2023-01-05T20:19:25;25.33;;;10.05;;
49978;SDS011;35869;50.990;6.962;2023-01-05T20:24:27;22.42;;;8.57;;
49978;SDS011;35869;50.990;6.962;2023-01-05T20:29:31;19.58;;;9.48;;
49978;SDS011;35869;50.990;6.962;2023-01-05T20:34:32;25.50;;;10.03;;
49978;SDS011;35869;50.990;6.962;2023-01-05T20:39:33;26.63;;;10.02;;
49978;SDS011;35869;50.990;6.962;2023-01-05T20:44:36;22.23;;;9.48;;
49978;SDS011;35869;50.990;6.962;2023-01-05T20:49:38;22.02;;;10.25;;
49978;SDS011;35869;50.990;6.962;2023-01-05T20:54:39;22.55;;;10.02;;
49978;SDS011;35869;50.990;6.962;2023-01-05T20:59:40;21.92;;;10.60;;
49978;SDS011;35869;50.990;6.962;2023-01-05T21:04:40;19.07;;;9.60;;
49978;SDS011;35869;50.990;6.962;2023-01-05T21:09:41;17.83;;;8.23;;
49978;SDS011;35869;50.990;6.962;2023-01-05T21:14:41;13.45;;;7.97;;
49978;SDS011;35869;50.990;6.962;2023-01-05T21:19:41;15.25;;;8.05;;
49978;SDS011;35869;50.990;6.962;2023-01-05T21:24:42;16.83;;;8.50;;
49978;SDS011;35869;50.990;6.962;2023-01-05T21:29:42;11.67;;;7.33;;
49978;SDS011;35869;50.990;6.962;2023-01-05T21:34:42;13.38;;;6.50;;
49978;SDS011;35869;50.990;6.962;2023-01-05T21:39:42;10.63;;;7.57;;
49978;SDS011;35869;50.990;6.962;2023-01-05T21:44:43;11.75;;;6.80;;
49978;SDS011;35869;50.990;6.962;2023-01-05T21:49:43;9.10;;;6.15;;
49978;SDS011;35869;50.990;6.962;2023-01-05T21:54:43;8.98;;;6.05;;
49978;SDS011;35869;50.990;6.962;2023-01-05T21:59:43;8.82;;;6.57;;
49978;SDS011;35869;50.990;6.962;2023-01-05T22:04:43;11.45;;;7.50;;
49978;SDS011;35869;50.990;6.962;2023-01-05T22:09:44;16.60;;;7.65;;
49978;SDS011;35869;50.990;6.962;2023-01-05T22:14:44;9.70;;;7.90;;
49978;SDS011;35869;50.990;6.962;2023-01-05T22:19:45;8.77;;;7.83;;
49978;SDS011;35869;50.990;6.962;2023-01-05T22:24:45;10.90;;;7.95;;
49978;SDS011;35869;50.990;6.962;2023-01-05T22:29:45;10.45;;;7.60;;
49978;SDS011;35869;50.990;6.962;2023-01-05T22:34:45;7.63;;;6.45;;
49978;SDS011;35869;50.990;6.962;2023-01-05T22:39:45;11.00;;;7.63;;
49978;SDS011;35869;50.990;6.962;2023-01-05T22:44:46;8.82;;;7.47;;
49978;SDS011;35869;50.990;6.962;2023-01-05T22:49:46;8.52;;;6.95;;
49978;SDS011;35869;50.990;6.962;2023-01-05T22:54:46;13.02;;;9.35;;
49978;SDS011;35869;50.990;6.962;2023-01-05T22:59:46;13.48;;;9.00;;
49978;SDS011;35869;50.990;6.962;2023-01-05T23:04:46;9.95;;;7.97;;
49978;SDS011;35869;50.990;6.962;2023-01-05T23:09:47;11.75;;;9.43;;
49978;SDS011;35869;50.990;6.962;2023-01-05T23:14:47;7.15;;;5.13;;
49978;SDS011;35869;50.990;6.962;2023-01-05T23:19:47;7.20;;;5.68;;
49978;SDS011;35869;50.990;6.962;2023-01-05T23:24:47;6.88;;;3.85;;
49978;SDS011;35869;50.990;6.962;2023-01-05T23:29:47;7.50;;;3.15;;
49978;SDS011;35869;50.990;6.962;2023-01-05T23:34:48;5.75;;;2.15;;
49978;SDS011;35869;50.990;6.962;2023-01-05T23:39:48;4.28;;;2.45;;
49978;SDS011;35869;50.990;6.962;2023-01-05T23:44:48;7.00;;;2.78;;
49978;SDS011;35869;50.990;6.962;2023-01-05T23:49:48;7.80;;;2.10;;
49978;SDS011;35869;50.990;6.962;2023-01-05T23:54:48;8.23;;;2.13;;
49978;SDS011;35869;50.990;6.962;2023-01-05T23:59:49;3.33;;;1.92;;
